createdAt,value
2018-04-24T00:00:21.803Z,0
2018-04-24T00:01:22.312Z,0
2018-04-24T00:02:22.879Z,0
2018-04-24T00:03:23.450Z,0
2018-04-24T00:04:24.023Z,0
2018-04-24T00:05:24.599Z,0
2018-04-24T00:06:25.180Z,0
2018-04-24T00:07:25.764Z,0
2018-04-24T00:08:26.340Z,0
2018-04-24T00:09:26.908Z,0
2018-04-24T00:10:27.480Z,0
2018-04-24T00:11:28.053Z,0
2018-04-24T00:12:28.621Z,0
2018-04-24T00:13:29.203Z,0
2018-04-24T00:14:29.773Z,0
2018-04-24T00:15:30.346Z,0
2018-04-24T00:16:30.917Z,0
2018-04-24T00:17:31.491Z,0
2018-04-24T00:18:32.059Z,0
2018-04-24T00:19:32.629Z,0
2018-04-24T00:20:33.264Z,0
2018-04-24T00:21:33.781Z,0
2018-04-24T00:22:34.355Z,0
2018-04-24T00:23:34.926Z,0
2018-04-24T00:24:35.499Z,0
2018-04-24T00:25:36.070Z,0
2018-04-24T00:26:36.640Z,0
2018-04-24T00:27:37.211Z,0
2018-04-24T00:28:37.781Z,0
2018-04-24T00:29:38.357Z,0
2018-04-24T00:30:38.936Z,0
2018-04-24T00:31:39.509Z,0
2018-04-24T00:32:40.078Z,0
2018-04-24T00:33:40.649Z,0
2018-04-24T00:34:41.231Z,0
2018-04-24T00:35:41.805Z,0
2018-04-24T00:36:42.384Z,0
2018-04-24T00:37:42.955Z,0
2018-04-24T00:38:43.528Z,0
2018-04-24T00:39:44.101Z,0
2018-04-24T00:40:44.673Z,0
2018-04-24T00:41:45.246Z,0
2018-04-24T00:42:45.815Z,0
2018-04-24T00:43:46.387Z,0
2018-04-24T00:44:46.963Z,0
2018-04-24T00:45:47.553Z,0
2018-04-24T00:46:48.119Z,0
2018-04-24T00:47:48.694Z,0
2018-04-24T00:48:49.261Z,0
2018-04-24T00:49:49.832Z,0
2018-04-24T00:50:50.404Z,0
2018-04-24T00:51:50.979Z,0
2018-04-24T00:52:51.546Z,0
2018-04-24T00:53:52.115Z,0
2018-04-24T00:54:52.685Z,0
2018-04-24T00:55:53.263Z,0
2018-04-24T00:56:53.827Z,0
2018-04-24T00:57:54.401Z,0
2018-04-24T00:58:54.975Z,0
2018-04-24T00:59:55.546Z,0
2018-04-24T01:00:56.117Z,0
2018-04-24T01:01:56.689Z,0
2018-04-24T01:12:50.791Z,0
2018-04-24T01:13:51.363Z,0
2018-04-24T01:14:51.936Z,0
2018-04-24T01:15:52.517Z,0
2018-04-24T01:16:53.089Z,0
2018-04-24T01:17:53.661Z,0
2018-04-24T01:18:54.232Z,0
2018-04-24T01:19:54.803Z,0
2018-04-24T01:20:55.373Z,0
2018-04-24T01:21:55.953Z,0
2018-04-24T01:22:56.524Z,0
2018-04-24T01:23:57.095Z,0
2018-04-24T01:24:57.668Z,0
2018-04-24T01:25:58.238Z,0
2018-04-24T01:26:58.812Z,0
2018-04-24T01:27:59.382Z,0
2018-04-24T01:28:59.952Z,0
2018-04-24T01:30:00.523Z,0
2018-04-24T01:31:01.105Z,0
2018-04-24T01:32:01.678Z,0
2018-04-24T01:33:02.254Z,0
2018-04-24T01:34:02.819Z,0
2018-04-24T01:35:03.388Z,0
2018-04-24T01:36:03.960Z,0
2018-04-24T01:37:04.539Z,0
2018-04-24T01:38:05.106Z,0
2018-04-24T01:39:05.682Z,0
2018-04-24T01:40:06.252Z,0
2018-04-24T01:41:06.824Z,0
2018-04-24T01:42:07.394Z,0
2018-04-24T01:43:07.965Z,0
2018-04-24T01:44:08.535Z,0
2018-04-24T01:45:09.105Z,0
2018-04-24T01:46:09.675Z,0
2018-04-24T01:47:10.245Z,0
2018-04-24T01:48:10.815Z,0
2018-04-24T01:49:11.385Z,0
2018-04-24T01:50:11.954Z,0
2018-04-24T01:51:12.525Z,0
2018-04-24T01:52:13.096Z,0
2018-04-24T01:53:13.667Z,0
2018-04-24T01:54:14.240Z,0
2018-04-24T01:55:14.811Z,0
2018-04-24T01:56:15.381Z,0
2018-04-24T01:57:15.953Z,0
2018-04-24T01:58:16.521Z,0
2018-04-24T01:59:17.091Z,0
2018-04-24T02:00:17.660Z,0
2018-04-24T02:01:18.230Z,0
2018-04-24T02:02:18.805Z,0
2018-04-24T02:03:19.368Z,0
2018-04-24T02:04:19.950Z,0
2018-04-24T02:05:20.521Z,0
2018-04-24T02:06:21.090Z,0
2018-04-24T02:07:21.665Z,0
2018-04-24T02:08:22.232Z,0
2018-04-24T02:09:22.804Z,0
2018-04-24T02:10:23.383Z,0
2018-04-24T02:11:23.952Z,0
2018-04-24T02:12:24.524Z,0
2018-04-24T02:13:25.094Z,0
2018-04-24T02:14:25.664Z,0
2018-04-24T02:15:26.234Z,0
2018-04-24T02:16:26.805Z,0
2018-04-24T02:17:27.374Z,0
2018-04-24T02:18:27.956Z,0
2018-04-24T02:19:28.537Z,0
2018-04-24T02:20:29.106Z,0
2018-04-24T02:21:29.678Z,0
2018-04-24T02:22:30.255Z,0
2018-04-24T02:23:30.820Z,0
2018-04-24T02:24:31.392Z,0
2018-04-24T02:25:31.974Z,0
2018-04-24T02:26:32.535Z,0
2018-04-24T02:27:33.104Z,0
2018-04-24T02:28:33.675Z,0
2018-04-24T02:29:34.245Z,0
2018-04-24T02:30:34.828Z,0
2018-04-24T02:31:35.397Z,0
2018-04-24T02:32:35.967Z,0
2018-04-24T02:33:36.538Z,0
2018-04-24T02:34:37.107Z,0
2018-04-24T02:35:37.677Z,0
2018-04-24T02:36:38.247Z,0
2018-04-24T02:37:38.817Z,0
2018-04-24T02:38:39.387Z,0
2018-04-24T02:39:39.955Z,0
2018-04-24T02:40:40.526Z,0
2018-04-24T02:41:41.101Z,0
2018-04-24T02:42:41.674Z,0
2018-04-24T02:43:42.241Z,0
2018-04-24T02:44:42.812Z,0
2018-04-24T02:45:43.382Z,0
2018-04-24T02:46:43.952Z,0
2018-04-24T02:47:44.521Z,0
2018-04-24T02:48:45.092Z,0
2018-04-24T02:49:45.682Z,0
2018-04-24T02:50:46.243Z,0
2018-04-24T02:51:46.815Z,0
2018-04-24T02:52:47.385Z,0
2018-04-24T02:53:47.956Z,0
2018-04-24T02:54:48.523Z,0
2018-04-24T02:55:49.095Z,0
2018-04-24T02:56:49.665Z,0
2018-04-24T02:57:50.233Z,0
2018-04-24T02:58:50.808Z,0
2018-04-24T02:59:51.385Z,0
2018-04-24T03:00:51.955Z,0
2018-04-24T03:01:52.527Z,0
2018-04-24T03:02:53.106Z,0
2018-04-24T03:03:53.678Z,0
2018-04-24T03:04:54.253Z,0
2018-04-24T03:05:54.828Z,0
2018-04-24T03:06:55.398Z,0
2018-04-24T03:07:55.969Z,0
2018-04-24T03:08:56.546Z,0
2018-04-24T03:09:57.110Z,0
2018-04-24T03:10:57.679Z,0
2018-04-24T03:11:58.282Z,0
2018-04-24T03:12:58.818Z,0
2018-04-24T03:13:59.386Z,0
2018-04-24T03:14:59.958Z,0
2018-04-24T03:16:00.525Z,0
2018-04-24T03:17:01.095Z,0
2018-04-24T03:18:01.663Z,0
2018-04-24T03:19:02.242Z,0
2018-04-24T03:20:02.822Z,0
2018-04-24T03:21:03.391Z,0
2018-04-24T03:22:03.963Z,0
2018-04-24T03:23:04.528Z,0
2018-04-24T03:24:05.097Z,0
2018-04-24T03:25:05.667Z,0
2018-04-24T03:26:06.236Z,0
2018-04-24T03:27:06.805Z,0
2018-04-24T03:28:07.373Z,0
2018-04-24T03:29:07.942Z,0
2018-04-24T03:30:08.514Z,0
2018-04-24T03:31:09.089Z,0
2018-04-24T03:32:09.670Z,0
2018-04-24T03:33:10.238Z,0
2018-04-24T03:34:10.809Z,0
2018-04-24T03:35:11.376Z,0
2018-04-24T03:36:11.945Z,0
2018-04-24T03:37:12.511Z,0
2018-04-24T03:38:13.079Z,0
2018-04-24T03:39:13.648Z,0
2018-04-24T03:40:14.217Z,0
2018-04-24T03:41:14.785Z,0
2018-04-24T03:42:15.351Z,0
2018-04-24T03:43:15.919Z,0
2018-04-24T03:44:16.488Z,0
2018-04-24T03:45:17.058Z,0
2018-04-24T03:46:17.627Z,0
2018-04-24T03:47:18.195Z,0
2018-04-24T03:48:18.763Z,0
2018-04-24T03:49:19.333Z,0
2018-04-24T03:50:19.900Z,0
2018-04-24T03:51:20.469Z,0
2018-04-24T03:52:21.038Z,0
2018-04-24T03:53:21.617Z,0
2018-04-24T03:54:22.187Z,0
2018-04-24T03:55:22.754Z,0
2018-04-24T03:56:23.326Z,0
2018-04-24T03:57:23.904Z,0
2018-04-24T03:58:24.473Z,0
2018-04-24T03:59:25.047Z,0
2018-04-24T04:00:25.622Z,0
2018-04-24T04:01:26.193Z,0
2018-04-24T04:02:26.760Z,0
2018-04-24T04:03:27.480Z,0
2018-04-24T04:04:28.049Z,0
2018-04-24T04:05:28.627Z,0
2018-04-24T04:06:29.186Z,0
2018-04-24T04:07:29.781Z,0
2018-04-24T04:08:30.324Z,0
2018-04-24T04:09:30.891Z,0
2018-04-24T04:10:31.470Z,0
2018-04-24T04:11:32.040Z,0
2018-04-24T04:12:32.614Z,0
2018-04-24T04:13:33.189Z,0
2018-04-24T04:14:33.757Z,0
2018-04-24T04:15:34.325Z,0
2018-04-24T04:16:34.906Z,0
2018-04-24T04:17:35.476Z,0
2018-04-24T04:18:36.196Z,0
2018-04-24T04:19:36.765Z,0
2018-04-24T04:20:37.333Z,0
2018-04-24T04:21:37.903Z,0
2018-04-24T04:22:38.477Z,0
2018-04-24T04:23:39.057Z,0
2018-04-24T04:24:39.624Z,0
2018-04-24T04:25:40.194Z,0
2018-04-24T04:26:40.774Z,0
2018-04-24T04:27:41.342Z,0
2018-04-24T04:28:41.913Z,0
2018-04-24T04:29:42.486Z,0
2018-04-24T04:30:43.057Z,0
2018-04-24T04:31:43.635Z,0
2018-04-24T04:32:44.205Z,0
2018-04-24T04:33:44.927Z,0
2018-04-24T04:34:45.498Z,0
2018-04-24T04:35:46.070Z,0
2018-04-24T04:36:46.641Z,0
2018-04-24T04:37:47.213Z,0
2018-04-24T04:38:47.782Z,0
2018-04-24T04:39:48.363Z,0
2018-04-24T04:40:48.935Z,0
2018-04-24T04:41:49.521Z,0
2018-04-24T04:42:50.100Z,0
2018-04-24T04:43:50.820Z,0
2018-04-24T04:44:51.411Z,0
2018-04-24T04:45:51.972Z,0
2018-04-24T04:46:52.543Z,0
2018-04-24T04:47:53.169Z,0
2018-04-24T04:48:53.683Z,0
2018-04-24T04:49:54.255Z,0
2018-04-24T04:50:54.827Z,0
2018-04-24T04:51:55.397Z,0
2018-04-24T04:52:55.969Z,0
2018-04-24T04:53:56.539Z,0
2018-04-24T04:54:57.125Z,0
2018-04-24T04:55:57.693Z,0
2018-04-24T04:56:58.266Z,0
2018-04-24T04:57:58.840Z,0
2018-04-24T04:58:59.406Z,0
2018-04-24T04:59:59.978Z,0
2018-04-24T05:01:00.546Z,0
2018-04-24T05:02:01.117Z,0
2018-04-24T05:03:01.694Z,0
2018-04-24T05:04:02.271Z,0
2018-04-24T05:05:02.844Z,0
2018-04-24T05:06:03.423Z,0
2018-04-24T05:07:04.000Z,0
2018-04-24T05:08:04.576Z,0
2018-04-24T05:09:05.157Z,0
2018-04-24T05:10:05.724Z,0
2018-04-24T05:11:06.298Z,0
2018-04-24T05:12:06.899Z,0
2018-04-24T05:13:07.450Z,0
2018-04-24T05:14:08.171Z,0
2018-04-24T05:15:08.741Z,0
2018-04-24T05:16:09.322Z,0
2018-04-24T05:17:09.893Z,0
2018-04-24T05:18:10.463Z,0
2018-04-24T05:19:11.034Z,0
2018-04-24T05:20:11.648Z,0
2018-04-24T05:21:12.178Z,0
2018-04-24T05:22:12.748Z,0
2018-04-24T05:23:13.321Z,0
2018-04-24T05:24:13.895Z,0
2018-04-24T05:25:14.462Z,0
2018-04-24T05:26:15.046Z,0
2018-04-24T05:27:15.626Z,5
2018-04-24T05:28:16.199Z,5
2018-04-24T05:29:16.921Z,5
2018-04-24T05:30:17.494Z,5
2018-04-24T05:31:18.076Z,5
2018-04-24T05:32:18.648Z,5
2018-04-24T05:33:19.223Z,5
2018-04-24T05:34:19.803Z,5
2018-04-24T05:35:20.373Z,5
2018-04-24T05:36:20.946Z,5
2018-04-24T05:37:21.518Z,5
2018-04-24T05:38:22.089Z,5
2018-04-24T05:39:22.660Z,5
2018-04-24T05:40:23.243Z,5
2018-04-24T05:41:23.830Z,5
2018-04-24T05:42:24.408Z,5
2018-04-24T05:43:24.982Z,5
2018-04-24T05:44:25.571Z,5
2018-04-24T05:45:26.137Z,5
2018-04-24T05:46:26.714Z,5
2018-04-24T05:47:27.266Z,5
2018-04-24T05:48:27.838Z,5
2018-04-24T05:49:28.411Z,5
2018-04-24T05:50:28.985Z,5
2018-04-24T05:51:29.568Z,5
2018-04-24T05:52:30.142Z,5
2018-04-24T05:53:30.716Z,5
2018-04-24T05:54:31.442Z,5
2018-04-24T05:55:32.014Z,5
2018-04-24T05:56:32.581Z,5
2018-04-24T05:57:33.155Z,5
2018-04-24T05:58:33.726Z,5
2018-04-24T05:59:34.297Z,5
2018-04-24T06:00:34.872Z,5
2018-04-24T06:01:35.440Z,5
2018-04-24T06:02:36.018Z,5
2018-04-24T06:03:36.585Z,5
2018-04-24T06:04:37.308Z,5
2018-04-24T06:05:37.881Z,5
2018-04-24T06:06:38.452Z,5
2018-04-24T06:07:39.024Z,5
2018-04-24T06:08:39.650Z,5
2018-04-24T06:09:40.168Z,5
2018-04-24T06:10:40.748Z,5
2018-04-24T06:11:41.314Z,5
2018-04-24T06:12:41.884Z,5
2018-04-24T06:13:42.467Z,5
2018-04-24T06:14:43.039Z,5
2018-04-24T06:15:43.611Z,5
2018-04-24T06:16:44.196Z,5
2018-04-24T06:17:44.767Z,5
2018-04-24T06:18:45.341Z,5
2018-04-24T06:19:45.922Z,5
2018-04-24T06:20:46.497Z,5
2018-04-24T06:21:47.065Z,5
2018-04-24T06:22:47.637Z,5
2018-04-24T06:23:48.211Z,10
2018-04-24T06:24:48.793Z,10
2018-04-24T06:25:49.364Z,5
2018-04-24T06:26:49.939Z,5
2018-04-24T06:27:50.519Z,5
2018-04-24T06:28:51.091Z,5
2018-04-24T06:29:51.814Z,5
2018-04-24T06:30:52.385Z,5
2018-04-24T06:31:52.961Z,10
2018-04-24T06:32:53.537Z,10
2018-04-24T06:33:54.106Z,10
2018-04-24T06:34:54.681Z,10
2018-04-24T06:35:55.296Z,10
2018-04-24T06:36:55.827Z,10
2018-04-24T06:37:56.402Z,10
2018-04-24T06:38:56.974Z,10
2018-04-24T06:39:57.702Z,10
2018-04-24T06:40:58.273Z,10
2018-04-24T06:41:58.845Z,10
2018-04-24T06:42:59.418Z,10
2018-04-24T06:44:00.007Z,10
2018-04-24T06:45:00.580Z,10
2018-04-24T06:46:01.149Z,10
2018-04-24T06:47:01.724Z,15
2018-04-24T06:48:02.295Z,15
2018-04-24T06:49:02.868Z,15
2018-04-24T06:50:03.594Z,15
2018-04-24T06:51:04.163Z,10
2018-04-24T06:52:04.736Z,10
2018-04-24T06:53:05.314Z,10
2018-04-24T06:54:05.884Z,10
2018-04-24T06:55:06.565Z,10
2018-04-24T06:56:07.044Z,10
2018-04-24T06:57:07.619Z,15
2018-04-24T06:58:08.203Z,15
2018-04-24T06:59:08.788Z,15
2018-04-24T07:00:09.511Z,15
2018-04-24T07:01:10.087Z,15
2018-04-24T07:02:10.660Z,15
2018-04-24T07:03:11.244Z,10
2018-04-24T07:04:11.816Z,10
2018-04-24T07:05:12.391Z,10
2018-04-24T07:06:12.963Z,10
2018-04-24T07:07:13.537Z,10
2018-04-24T07:08:14.112Z,10
2018-04-24T07:09:14.685Z,15
2018-04-24T07:10:15.408Z,15
2018-04-24T07:11:15.981Z,15
2018-04-24T07:12:16.556Z,15
2018-04-24T07:13:17.141Z,15
2018-04-24T07:14:17.715Z,15
2018-04-24T07:15:18.296Z,15
2018-04-24T07:16:18.873Z,15
2018-04-24T07:17:19.453Z,15
2018-04-24T07:18:20.038Z,15
2018-04-24T07:19:20.615Z,15
2018-04-24T07:20:21.184Z,15
2018-04-24T07:21:21.767Z,15
2018-04-24T07:22:22.340Z,15
2018-04-24T07:23:22.915Z,15
2018-04-24T07:24:23.488Z,15
2018-04-24T07:25:24.063Z,15
2018-04-24T07:26:24.646Z,15
2018-04-24T07:27:25.220Z,15
2018-04-24T07:28:25.796Z,15
2018-04-24T07:29:26.373Z,15
2018-04-24T07:30:27.093Z,15
2018-04-24T07:31:27.666Z,15
2018-04-24T07:32:28.241Z,15
2018-04-24T07:33:28.813Z,15
2018-04-24T07:34:29.387Z,15
2018-04-24T07:35:29.963Z,15
2018-04-24T07:36:30.536Z,15
2018-04-24T07:37:31.110Z,15
2018-04-24T07:38:31.685Z,20
2018-04-24T07:39:32.258Z,20
2018-04-24T07:40:32.983Z,20
2018-04-24T07:41:33.571Z,20
2018-04-24T07:42:34.144Z,20
2018-04-24T07:43:34.717Z,20
2018-04-24T07:44:35.291Z,20
2018-04-24T07:45:35.866Z,20
2018-04-24T07:46:36.521Z,20
2018-04-24T07:47:37.016Z,20
2018-04-24T07:48:37.593Z,20
2018-04-24T07:49:38.162Z,20
2018-04-24T07:50:38.737Z,20
2018-04-24T07:51:39.312Z,20
2018-04-24T07:52:39.894Z,20
2018-04-24T07:53:40.470Z,20
2018-04-24T07:54:41.043Z,20
2018-04-24T07:55:41.616Z,20
2018-04-24T07:56:42.191Z,20
2018-04-24T07:57:42.765Z,15
2018-04-24T07:58:43.344Z,15
2018-04-24T07:59:43.912Z,15
2018-04-24T08:00:44.487Z,15
2018-04-24T08:01:45.070Z,15
2018-04-24T08:02:45.642Z,15
2018-04-24T08:03:46.216Z,15
2018-04-24T08:04:46.792Z,15
2018-04-24T08:05:47.365Z,15
2018-04-24T08:06:47.939Z,15
2018-04-24T08:07:48.528Z,15
2018-04-24T08:08:49.087Z,15
2018-04-24T08:09:49.663Z,15
2018-04-24T08:10:50.236Z,15
2018-04-24T08:11:50.808Z,15
2018-04-24T08:12:51.386Z,15
2018-04-24T08:13:51.959Z,15
2018-04-24T08:14:52.534Z,15
2018-04-24T08:15:53.115Z,15
2018-04-24T08:16:53.681Z,15
2018-04-24T08:17:54.257Z,15
2018-04-24T08:18:54.831Z,15
2018-04-24T08:19:55.405Z,15
2018-04-24T08:20:55.978Z,15
2018-04-24T08:21:56.554Z,15
2018-04-24T08:22:57.240Z,15
2018-04-24T08:23:57.713Z,15
2018-04-24T08:24:58.286Z,15
2018-04-24T08:25:58.862Z,15
2018-04-24T08:26:59.433Z,15
2018-04-24T08:28:00.007Z,15
2018-04-24T08:29:00.591Z,15
2018-04-24T08:30:01.166Z,15
2018-04-24T08:31:01.751Z,15
2018-04-24T08:32:02.325Z,20
2018-04-24T08:33:02.909Z,20
2018-04-24T08:34:03.484Z,20
2018-04-24T08:35:04.059Z,20
2018-04-24T08:36:04.634Z,20
2018-04-24T08:37:05.211Z,20
2018-04-24T08:38:05.781Z,20
2018-04-24T08:39:06.357Z,20
2018-04-24T08:40:06.934Z,20
2018-04-24T08:41:07.505Z,20
2018-04-24T08:42:08.077Z,20
2018-04-24T08:43:08.650Z,20
2018-04-24T08:44:09.223Z,20
2018-04-24T08:45:09.797Z,15
2018-04-24T08:46:10.381Z,15
2018-04-24T08:47:10.954Z,15
2018-04-24T08:48:11.528Z,15
2018-04-24T08:49:12.103Z,20
2018-04-24T08:50:12.677Z,20
2018-04-24T08:51:13.250Z,20
2018-04-24T08:52:13.824Z,20
2018-04-24T08:53:14.412Z,20
2018-04-24T08:54:14.982Z,20
2018-04-24T08:55:15.561Z,20
2018-04-24T08:56:16.150Z,20
2018-04-24T08:57:16.716Z,20
2018-04-24T08:58:17.292Z,20
2018-04-24T08:59:17.866Z,20
2018-04-24T09:00:18.439Z,20
2018-04-24T09:01:19.011Z,25
2018-04-24T09:02:19.586Z,25
2018-04-24T09:03:20.161Z,25
2018-04-24T09:04:20.735Z,20
2018-04-24T09:05:21.309Z,20
2018-04-24T09:06:21.898Z,20
2018-04-24T09:07:22.469Z,25
2018-04-24T09:08:23.041Z,25
2018-04-24T09:09:23.617Z,25
2018-04-24T09:10:24.191Z,20
2018-04-24T09:11:24.767Z,20
2018-04-24T09:12:25.341Z,20
2018-04-24T09:13:25.916Z,20
2018-04-24T09:14:26.492Z,20
2018-04-24T09:15:27.066Z,20
2018-04-24T09:16:27.640Z,20
2018-04-24T09:17:28.214Z,20
2018-04-24T09:18:28.791Z,20
2018-04-24T09:19:29.374Z,20
2018-04-24T09:20:29.950Z,20
2018-04-24T09:21:30.523Z,20
2018-04-24T09:22:31.098Z,20
2018-04-24T09:23:31.672Z,25
2018-04-24T09:24:32.246Z,30
2018-04-24T09:25:32.823Z,35
2018-04-24T09:26:33.395Z,35
2018-04-24T09:27:33.971Z,35
2018-04-24T09:28:34.544Z,35
2018-04-24T09:29:35.129Z,35
2018-04-24T09:30:35.704Z,35
2018-04-24T09:31:36.280Z,30
2018-04-24T09:32:36.855Z,30
2018-04-24T09:33:37.540Z,30
2018-04-24T09:34:38.005Z,25
2018-04-24T09:35:38.581Z,25
2018-04-24T09:36:39.157Z,20
2018-04-24T09:37:39.730Z,20
2018-04-24T09:38:40.304Z,20
2018-04-24T09:39:40.878Z,20
2018-04-24T09:40:41.454Z,20
2018-04-24T09:41:42.030Z,20
2018-04-24T09:42:42.604Z,20
2018-04-24T09:43:43.181Z,20
2018-04-24T09:44:43.777Z,20
2018-04-24T09:45:44.364Z,20
2018-04-24T09:46:44.946Z,20
2018-04-24T09:47:45.519Z,20
2018-04-24T09:48:46.097Z,20
2018-04-24T09:49:46.668Z,20
2018-04-24T09:50:47.243Z,20
2018-04-24T09:51:47.818Z,20
2018-04-24T09:52:48.392Z,20
2018-04-24T09:53:48.966Z,20
2018-04-24T09:54:49.540Z,20
2018-04-24T09:55:50.116Z,20
2018-04-24T09:56:50.784Z,20
2018-04-24T09:57:51.272Z,20
2018-04-24T09:58:51.847Z,20
2018-04-24T09:59:52.422Z,20
2018-04-24T10:00:52.997Z,20
2018-04-24T10:01:53.572Z,25
2018-04-24T10:02:54.148Z,25
2018-04-24T10:03:54.723Z,30
2018-04-24T10:04:55.298Z,30
2018-04-24T10:05:55.871Z,30
2018-04-24T10:06:56.447Z,35
2018-04-24T10:07:57.024Z,30
2018-04-24T10:08:57.599Z,25
2018-04-24T10:09:58.172Z,25
2018-04-24T10:10:58.759Z,20
2018-04-24T10:11:59.337Z,20
2018-04-24T10:12:59.937Z,20
2018-04-24T10:14:00.485Z,20
2018-04-24T10:15:01.060Z,20
2018-04-24T10:16:01.639Z,20
2018-04-24T10:17:02.220Z,20
2018-04-24T10:18:02.806Z,20
2018-04-24T10:19:03.378Z,20
2018-04-24T10:20:03.956Z,25
2018-04-24T10:21:04.533Z,25
2018-04-24T10:22:05.104Z,25
2018-04-24T10:23:05.683Z,25
2018-04-24T10:24:06.256Z,25
2018-04-24T10:25:06.869Z,25
2018-04-24T10:26:07.463Z,30
2018-04-24T10:27:08.077Z,35
2018-04-24T10:28:08.689Z,35
2018-04-24T10:29:09.283Z,30
2018-04-24T10:30:09.956Z,25
2018-04-24T10:31:10.566Z,25
2018-04-24T10:32:11.337Z,20
2018-04-24T10:33:11.944Z,20
2018-04-24T10:34:12.556Z,20
2018-04-24T10:35:13.148Z,20
2018-04-24T10:36:13.724Z,20
2018-04-24T10:37:14.298Z,20
2018-04-24T10:38:14.918Z,20
2018-04-24T10:39:15.451Z,20
2018-04-24T10:40:16.026Z,20
2018-04-24T10:41:16.602Z,20
2018-04-24T10:42:17.173Z,25
2018-04-24T10:43:17.749Z,25
2018-04-24T10:44:18.326Z,25
2018-04-24T10:45:18.901Z,30
2018-04-24T10:46:19.479Z,35
2018-04-24T10:47:20.054Z,30
2018-04-24T10:48:20.629Z,30
2018-04-24T10:49:21.208Z,30
2018-04-24T10:50:21.779Z,35
2018-04-24T10:51:22.357Z,40
2018-04-24T10:52:22.936Z,45
2018-04-24T10:53:23.508Z,35
2018-04-24T10:54:24.083Z,30
2018-04-24T10:55:24.660Z,30
2018-04-24T10:56:25.239Z,35
2018-04-24T10:57:25.813Z,30
2018-04-24T10:58:26.385Z,30
2018-04-24T10:59:27.045Z,30
2018-04-24T11:00:27.538Z,30
2018-04-24T11:01:28.112Z,30
2018-04-24T11:02:28.689Z,30
2018-04-24T11:03:29.264Z,25
2018-04-24T11:04:29.840Z,25
2018-04-24T11:05:30.415Z,25
2018-04-24T11:06:30.992Z,20
2018-04-24T11:07:31.566Z,25
2018-04-24T11:08:32.141Z,25
2018-04-24T11:09:32.717Z,25
2018-04-24T11:10:33.294Z,30
2018-04-24T11:11:33.870Z,35
2018-04-24T11:12:34.443Z,35
2018-04-24T11:13:35.022Z,35
2018-04-24T11:14:35.596Z,35
2018-04-24T11:15:36.172Z,35
2018-04-24T11:16:36.747Z,35
2018-04-24T11:17:37.324Z,35
2018-04-24T11:18:37.898Z,30
2018-04-24T11:19:38.474Z,30
2018-04-24T11:20:39.048Z,30
2018-04-24T11:21:39.633Z,30
2018-04-24T11:22:40.290Z,30
2018-04-24T11:23:40.785Z,30
2018-04-24T11:24:41.369Z,30
2018-04-24T11:25:41.944Z,30
2018-04-24T11:26:42.560Z,30
2018-04-24T11:27:43.098Z,35
2018-04-24T11:28:43.673Z,35
2018-04-24T11:29:44.250Z,35
2018-04-24T11:30:44.825Z,30
2018-04-24T11:31:45.401Z,30
2018-04-24T11:32:45.978Z,30
2018-04-24T11:33:46.556Z,30
2018-04-24T11:34:47.129Z,25
2018-04-24T11:35:47.704Z,30
2018-04-24T11:36:48.280Z,35
2018-04-24T11:37:48.858Z,35
2018-04-24T11:38:49.436Z,30
2018-04-24T11:39:50.009Z,30
2018-04-24T11:40:50.586Z,25
2018-04-24T11:41:51.161Z,25
2018-04-24T11:42:51.737Z,25
2018-04-24T11:43:52.377Z,25
2018-04-24T11:44:52.889Z,20
2018-04-24T11:45:53.466Z,25
2018-04-24T11:46:54.041Z,20
2018-04-24T11:47:54.617Z,20
2018-04-24T11:48:55.193Z,20
2018-04-24T11:49:55.768Z,20
2018-04-24T11:50:56.345Z,20
2018-04-24T11:51:56.921Z,20
2018-04-24T11:52:57.497Z,20
2018-04-24T11:53:58.087Z,20
2018-04-24T11:54:58.657Z,20
2018-04-24T11:55:59.233Z,15
2018-04-24T11:56:59.857Z,15
2018-04-24T11:58:00.385Z,20
2018-04-24T11:59:00.960Z,20
2018-04-24T12:00:01.540Z,20
2018-04-24T12:01:02.121Z,20
2018-04-24T12:02:02.697Z,20
2018-04-24T12:03:03.277Z,20
2018-04-24T12:04:03.851Z,20
2018-04-24T12:05:04.430Z,20
2018-04-24T12:06:05.013Z,25
2018-04-24T12:07:05.587Z,25
2018-04-24T12:08:06.176Z,20
2018-04-24T12:09:06.737Z,20
2018-04-24T12:10:07.348Z,20
2018-04-24T12:11:07.890Z,20
2018-04-24T12:12:08.465Z,20
2018-04-24T12:13:09.042Z,20
2018-04-24T12:14:09.614Z,20
2018-04-24T12:15:10.191Z,20
2018-04-24T12:16:10.769Z,25
2018-04-24T12:17:11.343Z,25
2018-04-24T12:18:11.921Z,20
2018-04-24T12:19:12.499Z,20
2018-04-24T12:20:13.073Z,20
2018-04-24T12:21:13.649Z,20
2018-04-24T12:22:14.223Z,20
2018-04-24T12:23:14.810Z,20
2018-04-24T12:24:15.385Z,20
2018-04-24T12:25:15.973Z,20
2018-04-24T12:26:16.546Z,20
2018-04-24T12:27:17.122Z,20
2018-04-24T12:28:17.699Z,15
2018-04-24T12:29:18.279Z,15
2018-04-24T12:30:18.861Z,20
2018-04-24T12:31:19.446Z,20
2018-04-24T12:32:20.024Z,20
2018-04-24T12:33:20.599Z,20
2018-04-24T12:34:21.185Z,15
2018-04-24T12:35:21.763Z,15
2018-04-24T12:36:22.339Z,15
2018-04-24T12:37:22.913Z,15
2018-04-24T12:38:23.488Z,10
2018-04-24T12:39:24.065Z,15
2018-04-24T12:40:24.641Z,15
2018-04-24T12:41:25.215Z,15
2018-04-24T12:42:25.791Z,15
2018-04-24T12:43:26.376Z,10
2018-04-24T12:44:26.959Z,15
2018-04-24T12:45:27.538Z,15
2018-04-24T12:46:28.114Z,15
2018-04-24T12:47:28.688Z,20
2018-04-24T12:48:29.264Z,20
2018-04-24T12:49:29.842Z,20
2018-04-24T12:50:30.416Z,20
2018-04-24T12:51:30.991Z,15
2018-04-24T12:52:31.576Z,20
2018-04-24T12:53:32.161Z,20
2018-04-24T12:54:32.739Z,20
2018-04-24T12:55:33.314Z,20
2018-04-24T12:56:33.900Z,20
2018-04-24T12:57:34.487Z,20
2018-04-24T12:58:35.064Z,15
2018-04-24T12:59:35.639Z,15
2018-04-24T13:00:36.213Z,15
2018-04-24T13:01:36.790Z,15
2018-04-24T13:02:37.375Z,15
2018-04-24T13:03:37.950Z,15
2018-04-24T13:04:38.556Z,15
2018-04-24T13:05:39.104Z,15
2018-04-24T13:06:39.691Z,10
2018-04-24T13:07:40.265Z,10
2018-04-24T13:08:40.840Z,10
2018-04-24T13:09:41.460Z,10
2018-04-24T13:10:41.991Z,10
2018-04-24T13:11:42.568Z,10
2018-04-24T13:12:43.143Z,10
2018-04-24T13:13:43.731Z,10
2018-04-24T13:14:44.308Z,10
2018-04-24T13:15:44.882Z,10
2018-04-24T13:16:45.457Z,10
2018-04-24T13:17:46.035Z,10
2018-04-24T13:18:46.611Z,10
2018-04-24T13:19:47.188Z,10
2018-04-24T13:20:47.809Z,10
2018-04-24T13:21:48.384Z,10
2018-04-24T13:22:48.962Z,5
2018-04-24T13:23:49.535Z,10
2018-04-24T13:24:50.113Z,10
2018-04-24T13:25:50.750Z,10
2018-04-24T13:26:51.264Z,10
2018-04-24T13:27:51.844Z,10
2018-04-24T13:28:52.415Z,10
2018-04-24T13:29:52.990Z,10
2018-04-24T13:30:53.577Z,10
2018-04-24T13:31:54.152Z,10
2018-04-24T13:32:54.738Z,10
2018-04-24T13:33:55.313Z,10
2018-04-24T13:34:55.890Z,10
2018-04-24T13:35:56.465Z,5
2018-04-24T13:36:57.041Z,5
2018-04-24T13:37:57.626Z,5
2018-04-24T13:38:58.200Z,5
2018-04-24T13:39:58.777Z,10
2018-04-24T13:40:59.352Z,10
2018-04-24T13:41:59.928Z,10
2018-04-24T13:43:00.506Z,10
2018-04-24T13:44:01.083Z,10
2018-04-24T13:45:01.699Z,10
2018-04-24T13:46:02.231Z,10
2018-04-24T13:47:02.807Z,15
2018-04-24T13:48:03.386Z,15
2018-04-24T13:49:03.960Z,15
2018-04-24T13:50:04.536Z,15
2018-04-24T13:51:05.113Z,15
2018-04-24T13:52:05.688Z,15
2018-04-24T13:53:06.268Z,15
2018-04-24T13:54:06.851Z,15
2018-04-24T13:55:07.437Z,15
2018-04-24T13:56:08.014Z,15
2018-04-24T13:57:08.589Z,15
2018-04-24T13:58:09.192Z,15
2018-04-24T13:59:09.751Z,10
2018-04-24T14:00:10.330Z,15
2018-04-24T14:01:10.913Z,10
2018-04-24T14:02:11.507Z,10
2018-04-24T14:03:12.075Z,5
2018-04-24T14:04:12.650Z,5
2018-04-24T14:05:13.222Z,5
2018-04-24T14:06:13.797Z,5
2018-04-24T14:07:14.389Z,10
2018-04-24T14:08:14.960Z,10
2018-04-24T14:09:15.536Z,10
2018-04-24T14:10:16.113Z,10
2018-04-24T14:11:16.698Z,10
2018-04-24T14:12:17.279Z,10
2018-04-24T14:13:17.851Z,10
2018-04-24T14:14:18.430Z,10
2018-04-24T14:15:19.001Z,10
2018-04-24T14:16:19.579Z,10
2018-04-24T14:17:20.162Z,10
2018-04-24T14:18:20.736Z,10
2018-04-24T14:19:21.312Z,10
2018-04-24T14:20:21.888Z,10
2018-04-24T14:21:22.467Z,10
2018-04-24T14:22:23.041Z,10
2018-04-24T14:23:23.615Z,10
2018-04-24T14:24:24.192Z,10
2018-04-24T14:25:24.768Z,10
2018-04-24T14:26:25.344Z,15
2018-04-24T14:27:25.920Z,15
2018-04-24T14:28:26.498Z,15
2018-04-24T14:29:27.083Z,10
2018-04-24T14:30:27.659Z,10
2018-04-24T14:31:28.234Z,10
2018-04-24T14:32:28.812Z,10
2018-04-24T14:33:29.386Z,15
2018-04-24T14:34:29.961Z,15
2018-04-24T14:35:30.539Z,15
2018-04-24T14:36:31.118Z,15
2018-04-24T14:37:31.709Z,15
2018-04-24T14:38:32.287Z,15
2018-04-24T14:39:32.862Z,15
2018-04-24T14:40:33.439Z,15
2018-04-24T14:41:34.015Z,15
2018-04-24T14:42:34.603Z,15
2018-04-24T14:43:35.187Z,15
2018-04-24T14:44:35.764Z,15
2018-04-24T14:45:36.341Z,15
2018-04-24T14:46:36.917Z,15
2018-04-24T14:47:37.493Z,15